createdAt,value
2016-08-21T00:00:53.053Z,94.79
2016-08-21T00:01:53.063Z,95.07
2016-08-21T00:02:53.783Z,94.69
2016-08-21T00:03:53.071Z,94.98
2016-08-21T00:04:53.058Z,94.21
2016-08-21T00:05:53.040Z,94.79
2016-08-21T00:06:53.037Z,94.89
2016-08-21T00:07:53.011Z,94.89
2016-08-21T00:08:53.006Z,94.6
2016-08-21T00:09:53.019Z,94.6
2016-08-21T00:10:53.229Z,94.6
2016-08-21T00:11:53.663Z,94.89
2016-08-21T00:12:53.190Z,95.07
2016-08-21T00:13:53.181Z,94.79
2016-08-21T00:14:53.239Z,95.07
2016-08-21T00:15:53.671Z,95.65
2016-08-21T00:16:53.163Z,95.65
2016-08-21T00:17:53.104Z,95.46
2016-08-21T00:18:52.982Z,95.46
2016-08-21T00:19:52.976Z,95.56
2016-08-21T00:20:52.981Z,94.79
2016-08-21T00:21:52.973Z,94.69
2016-08-21T00:22:53.708Z,94.79
2016-08-21T00:23:52.959Z,94.89
2016-08-21T00:24:52.950Z,94.6
2016-08-21T00:25:54.673Z,94.31
2016-08-21T00:27:08.097Z,94.98
2016-08-21T00:27:53.223Z,94.89
2016-08-21T00:28:55.092Z,94.6
2016-08-21T00:29:53.361Z,94.4
2016-08-21T00:30:53.711Z,94.98
2016-08-21T00:31:53.944Z,94.98
2016-08-21T00:32:55.143Z,94.4
2016-08-21T00:33:53.079Z,94.6
2016-08-21T00:34:53.394Z,94.69
2016-08-21T00:35:54.413Z,94.79
2016-08-21T00:36:53.163Z,94.6
2016-08-21T00:37:53.260Z,94.5
2016-08-21T00:38:53.032Z,94.5
2016-08-21T00:39:53.250Z,94.79
2016-08-21T00:40:54.532Z,94.69
2016-08-21T00:41:53.719Z,94.98
2016-08-21T00:42:53.492Z,94.79
2016-08-21T00:43:53.857Z,94.98
2016-08-21T00:44:53.253Z,94.5
2016-08-21T00:46:55.416Z,94.98
2016-08-21T00:47:53.128Z,94.79
2016-08-21T00:48:53.184Z,94.98
2016-08-21T00:49:53.141Z,94.6
2016-08-21T00:50:54.273Z,94.69
2016-08-21T00:51:53.431Z,94.69
2016-08-21T00:53:53.090Z,94.5
2016-08-21T00:54:54.000Z,94.21
2016-08-21T00:55:54.219Z,94.6
2016-08-21T00:56:53.119Z,94.21
2016-08-21T00:57:53.118Z,94.5
2016-08-21T00:58:53.121Z,94.4
2016-08-21T00:59:53.069Z,94.5
2016-08-21T01:00:53.142Z,94.6
2016-08-21T01:01:53.107Z,94.4
2016-08-21T01:02:53.126Z,94.79
2016-08-21T01:03:53.163Z,94.6
2016-08-21T01:04:53.054Z,94.79
2016-08-21T01:05:53.002Z,94.79
2016-08-21T01:06:53.490Z,94.89
2016-08-21T01:07:52.937Z,94.6
2016-08-21T01:08:52.955Z,94.79
2016-08-21T01:09:52.996Z,94.98
2016-08-21T01:10:52.916Z,94.79
2016-08-21T01:11:53.894Z,94.89
2016-08-21T01:12:53.045Z,94.89
2016-08-21T01:13:53.008Z,94.79
2016-08-21T01:14:53.012Z,94.79
2016-08-21T01:15:52.891Z,94.69
2016-08-21T01:16:53.480Z,94.6
2016-08-21T01:17:52.916Z,94.5
2016-08-21T01:18:52.888Z,94.79
2016-08-21T01:19:52.905Z,94.69
2016-08-21T01:20:53.083Z,94.79
2016-08-21T01:21:52.917Z,94.5
2016-08-21T01:22:52.902Z,95.27
2016-08-21T01:23:52.967Z,94.89
2016-08-21T01:24:52.946Z,95.36
2016-08-21T01:25:52.954Z,95.46
2016-08-21T01:26:52.866Z,95.36
2016-08-21T01:27:53.831Z,95.27
2016-08-21T01:28:52.765Z,95.36
2016-08-21T01:29:52.871Z,95.36
2016-08-21T01:30:52.912Z,95.17
2016-08-21T01:31:53.814Z,95.46
2016-08-21T01:32:52.772Z,95.46
2016-08-21T01:33:53.060Z,94.79
2016-08-21T01:34:52.963Z,94.79
2016-08-21T01:35:54.540Z,94.69
2016-08-21T01:36:53.072Z,94.5
2016-08-21T01:37:53.736Z,94.4
2016-08-21T01:38:52.790Z,94.69
2016-08-21T01:39:52.815Z,94.89
2016-08-21T01:40:52.894Z,94.4
2016-08-21T01:41:53.098Z,94.79
2016-08-21T01:42:52.892Z,94.98
2016-08-21T01:43:52.921Z,95.27
2016-08-21T01:44:52.869Z,95.65
2016-08-21T01:45:53.305Z,94.79
2016-08-21T01:46:52.893Z,94.69
2016-08-21T01:47:52.714Z,94.4
2016-08-21T01:48:52.750Z,94.4
2016-08-21T01:49:52.698Z,94.31
2016-08-21T01:50:52.714Z,94.69
2016-08-21T01:51:52.718Z,94.5
2016-08-21T01:52:52.695Z,94.36
2016-08-21T01:53:53.106Z,94.26
2016-08-21T01:54:52.867Z,94.36
2016-08-21T01:55:53.006Z,94.45
2016-08-21T01:56:52.755Z,94.65
2016-08-21T01:57:52.799Z,94.65
2016-08-21T01:58:52.890Z,94.65
2016-08-21T01:59:52.724Z,94.65
2016-08-21T02:00:52.729Z,94.74
2016-08-21T02:01:52.841Z,94.74
2016-08-21T02:02:52.734Z,94.55
2016-08-21T02:03:53.011Z,94.84
2016-08-21T02:04:52.804Z,94.93
2016-08-21T02:05:52.695Z,94.93
2016-08-21T02:06:52.682Z,94.74
2016-08-21T02:07:52.769Z,95.51
2016-08-21T02:08:52.694Z,95.31
2016-08-21T02:09:52.934Z,95.22
2016-08-21T02:10:52.674Z,95.41
2016-08-21T02:11:52.754Z,95.31
2016-08-21T02:12:52.699Z,95.31
2016-08-21T02:13:52.686Z,95.51
2016-08-21T02:14:52.811Z,95.31
2016-08-21T02:15:52.701Z,95.31
2016-08-21T02:16:52.684Z,95.56
2016-08-21T02:17:52.678Z,95.22
2016-08-21T02:18:52.700Z,95.12
2016-08-21T02:19:52.658Z,95.27
2016-08-21T02:20:52.707Z,95.07
2016-08-21T02:21:52.607Z,95.17
2016-08-21T02:22:52.611Z,95.46
2016-08-21T02:23:52.723Z,95.27
2016-08-21T02:24:52.688Z,95.84
2016-08-21T02:25:52.700Z,95.46
2016-08-21T02:26:52.701Z,95.46
2016-08-21T02:27:53.044Z,95.75
2016-08-21T02:28:52.697Z,95.84
2016-08-21T02:29:52.999Z,95.46
2016-08-21T02:30:52.679Z,95.56
2016-08-21T02:32:53.570Z,96.22
2016-08-21T02:33:52.850Z,96.22
2016-08-21T02:34:52.667Z,96.03
2016-08-21T02:35:52.667Z,96.03
2016-08-21T02:36:52.678Z,96.99
2016-08-21T02:37:52.749Z,95.84
2016-08-21T02:38:53.522Z,96.22
2016-08-21T02:39:52.784Z,96.13
2016-08-21T02:40:52.727Z,96.03
2016-08-21T02:41:52.885Z,96.03
2016-08-21T02:42:52.821Z,96.03
2016-08-21T02:43:52.764Z,96.13
2016-08-21T02:44:53.518Z,96.22
2016-08-21T02:45:52.729Z,96.13
2016-08-21T02:46:52.637Z,95.84
2016-08-21T02:47:52.617Z,96.89
2016-08-21T02:48:52.668Z,96.99
2016-08-21T02:49:52.624Z,95.94
2016-08-21T02:50:52.551Z,95.94
2016-08-21T02:51:52.542Z,95.94
2016-08-21T02:52:52.542Z,96.03
2016-08-21T02:53:52.556Z,96.51
2016-08-21T02:54:52.498Z,96.61
2016-08-21T02:55:52.480Z,96.61
2016-08-21T02:56:52.509Z,96.7
2016-08-21T02:57:52.480Z,96.89
2016-08-21T02:58:52.506Z,96.8
2016-08-21T02:59:52.495Z,96.99
2016-08-21T03:00:52.496Z,96.8
2016-08-21T03:01:52.523Z,96.89
2016-08-21T03:02:52.520Z,96.89
2016-08-21T03:03:52.539Z,96.7
2016-08-21T03:04:52.535Z,96.61
2016-08-21T03:05:52.540Z,96.42
2016-08-21T03:06:52.459Z,96.7
2016-08-21T03:07:52.443Z,96.8
2016-08-21T03:08:52.726Z,96.61
2016-08-21T03:09:52.464Z,96.7
2016-08-21T03:10:52.460Z,96.42
2016-08-21T03:11:52.478Z,96.42
2016-08-21T03:12:52.488Z,96.56
2016-08-21T03:13:52.495Z,96.61
2016-08-21T03:14:52.493Z,96.61
2016-08-21T03:15:52.498Z,96.37
2016-08-21T03:16:52.507Z,96.56
2016-08-21T03:17:52.453Z,96.22
2016-08-21T03:18:52.431Z,96.18
2016-08-21T03:19:53.154Z,96.03
2016-08-21T03:20:52.446Z,95.79
2016-08-21T03:21:52.452Z,96.18
2016-08-21T03:22:53.202Z,95.98
2016-08-21T03:23:52.458Z,96.27
2016-08-21T03:24:52.459Z,96.08
2016-08-21T03:25:52.500Z,95.98
2016-08-21T03:26:52.478Z,95.51
2016-08-21T03:27:52.434Z,95.7
2016-08-21T03:28:52.430Z,95.98
2016-08-21T03:29:52.575Z,95.61
2016-08-21T03:30:52.450Z,96.94
2016-08-21T03:31:52.418Z,96.37
2016-08-21T03:32:52.425Z,96.56
2016-08-21T03:33:52.468Z,96.56
2016-08-21T03:34:52.450Z,96.56
2016-08-21T03:35:52.442Z,96.37
2016-08-21T03:36:52.460Z,96.47
2016-08-21T03:37:52.459Z,96.66
2016-08-21T03:38:52.418Z,96.32
2016-08-21T03:39:52.423Z,97.04
2016-08-21T03:40:52.428Z,96.61
2016-08-21T03:41:52.431Z,97.47
2016-08-21T03:42:52.438Z,97.28
2016-08-21T03:43:52.428Z,96.99
2016-08-21T03:44:52.345Z,97.18
2016-08-21T03:45:52.347Z,97.28
2016-08-21T03:46:52.353Z,97.28
2016-08-21T03:47:52.364Z,97.37
2016-08-21T03:48:52.382Z,97.56
2016-08-21T03:49:52.383Z,98.13
2016-08-21T03:50:52.391Z,97.08
2016-08-21T03:51:53.220Z,97.37
2016-08-21T03:52:52.391Z,97.56
2016-08-21T03:53:52.425Z,97.18
2016-08-21T03:54:52.430Z,97.28
2016-08-21T03:55:52.433Z,97.08
2016-08-21T03:56:52.341Z,96.99
2016-08-21T03:57:52.360Z,97.18
2016-08-21T03:58:52.358Z,96.99
2016-08-21T03:59:52.360Z,97.18
2016-08-21T15:28:51.954Z,67.99
2016-08-21T15:29:51.738Z,67.41
2016-08-21T15:30:51.726Z,66.55
2016-08-21T15:31:51.727Z,66.64
2016-08-21T15:32:51.740Z,68.46
2016-08-21T15:33:52.495Z,67.5
2016-08-21T15:34:51.757Z,66.26
2016-08-21T15:35:51.824Z,68.08
2016-08-21T15:36:51.726Z,68.75
2016-08-21T15:37:52.417Z,67.5
2016-08-21T15:38:51.707Z,68.08
2016-08-21T15:39:51.700Z,69.04
2016-08-21T15:40:51.724Z,68.95
2016-08-21T15:41:51.713Z,68.66
2016-08-21T15:42:51.733Z,67.99
2016-08-21T15:43:51.702Z,69.04
2016-08-21T15:44:51.683Z,69.81
2016-08-21T15:45:51.690Z,68.75
2016-08-21T15:46:51.684Z,67.79
2016-08-21T15:47:51.685Z,67.32
2016-08-21T15:48:51.691Z,67.79
2016-08-21T15:49:51.673Z,69.81
2016-08-21T15:50:51.675Z,69.62
2016-08-21T15:51:51.711Z,69.93
2016-08-21T15:52:51.697Z,68.88
2016-08-21T15:53:51.679Z,68.69
2016-08-21T15:54:51.664Z,68.02
2016-08-21T15:55:51.658Z,68.46
2016-08-21T15:56:51.673Z,70.42
2016-08-21T15:57:51.670Z,69.93
2016-08-21T15:58:51.663Z,69.74
2016-08-21T15:59:51.656Z,70
2016-08-21T16:00:51.684Z,70
2016-08-21T16:01:51.759Z,69.56
2016-08-21T16:02:51.676Z,68.37
2016-08-21T16:03:51.650Z,68.69
2016-08-21T16:04:51.855Z,68.02
2016-08-21T16:05:51.711Z,67.06
2016-08-21T16:06:51.674Z,66.39
2016-08-21T16:07:51.675Z,66.19
2016-08-21T16:08:51.645Z,64.85
2016-08-21T16:09:51.655Z,64.18
2016-08-21T16:10:51.647Z,63.6
2016-08-21T16:11:51.640Z,64.28
2016-08-21T16:12:51.630Z,64.76
2016-08-21T16:13:51.631Z,64.95
2016-08-21T16:14:51.700Z,64.76
2016-08-21T16:15:51.628Z,65.11
2016-08-21T16:16:51.629Z,66.45
2016-08-21T16:17:51.759Z,64.53
2016-08-21T16:18:51.605Z,64.43
2016-08-21T16:19:51.623Z,64.25
2016-08-21T16:20:51.629Z,63.48
2016-08-21T16:21:51.675Z,64.34
2016-08-21T16:22:51.629Z,64.92
2016-08-21T16:23:51.612Z,64.15
2016-08-21T16:24:51.623Z,64.05
2016-08-21T16:25:51.607Z,63.29
2016-08-21T16:26:51.683Z,61.75
2016-08-21T16:27:51.722Z,61.08
2016-08-21T16:28:51.594Z,61.27
2016-08-21T16:29:51.668Z,63.09
2016-08-21T16:30:51.601Z,62.68
2016-08-21T16:31:51.589Z,63.16
2016-08-21T16:32:51.591Z,63.73
2016-08-21T16:33:51.695Z,64.12
2016-08-21T16:34:51.586Z,64.12
2016-08-21T16:35:51.596Z,64.59
2016-08-21T16:36:51.599Z,64.12
2016-08-21T16:37:51.584Z,63.64
2016-08-21T16:38:51.578Z,63.54
2016-08-21T16:39:51.555Z,63.16
2016-08-21T16:40:51.569Z,64.89
2016-08-21T16:41:51.555Z,65.55
2016-08-21T16:42:51.592Z,64.5
2016-08-21T16:43:51.575Z,63.35
2016-08-21T16:44:51.555Z,64.79
2016-08-21T16:45:51.664Z,65.55
2016-08-21T16:46:51.626Z,64.89
2016-08-21T16:47:51.766Z,65.17
2016-08-21T16:48:51.582Z,64.89
2016-08-21T16:49:51.559Z,66.13
2016-08-21T16:50:51.530Z,65.71
2016-08-21T16:51:51.545Z,65.08
2016-08-21T16:52:51.560Z,64.89
2016-08-21T16:53:51.546Z,66.22
2016-08-21T16:54:51.541Z,66.03
2016-08-21T16:55:51.509Z,66.03
2016-08-21T16:56:51.517Z,66.03
2016-08-21T16:57:51.671Z,65.55
2016-08-21T16:58:51.942Z,65.55
2016-08-21T16:59:51.533Z,66.71
2016-08-21T17:00:51.520Z,65.17
2016-08-21T17:01:51.504Z,65.75
2016-08-21T17:02:51.524Z,64.89
2016-08-21T17:03:51.507Z,64.59
2016-08-21T17:04:51.591Z,64.31
2016-08-21T17:05:51.486Z,64.98
2016-08-21T17:06:51.496Z,64.69
2016-08-21T17:07:51.495Z,64.5
2016-08-21T17:08:51.502Z,63.13
2016-08-21T17:09:51.512Z,63.8
2016-08-21T17:10:51.508Z,62.74
2016-08-21T17:11:51.509Z,63.03
2016-08-21T17:12:51.493Z,62.17
2016-08-21T17:13:51.501Z,62.65
2016-08-21T17:14:51.573Z,62.84
2016-08-21T17:15:51.487Z,63.6
2016-08-21T17:16:51.479Z,63.13
2016-08-21T17:17:51.475Z,63.8
2016-08-21T17:18:51.509Z,64.09
2016-08-21T17:19:51.708Z,64.95
2016-08-21T17:20:51.494Z,64.76
2016-08-21T17:21:51.542Z,64.66
2016-08-21T17:22:51.459Z,64.76
2016-08-21T17:23:51.499Z,64.37
2016-08-21T17:24:51.502Z,64.47
2016-08-21T17:25:51.450Z,65.71
2016-08-21T17:26:51.444Z,67.05
2016-08-21T17:27:51.526Z,64.28
2016-08-21T17:28:51.489Z,64.09
2016-08-21T17:29:51.479Z,63.6
2016-08-21T17:30:51.481Z,64.09
2016-08-21T17:31:51.472Z,64.18
2016-08-21T17:32:51.460Z,64.95
2016-08-21T17:33:51.446Z,64.28
2016-08-21T17:34:51.422Z,63.6
2016-08-21T17:35:51.447Z,64.09
2016-08-21T17:36:51.775Z,64.66
2016-08-21T17:37:51.761Z,64.85
2016-08-21T17:38:51.488Z,66
2016-08-21T17:39:51.414Z,66.09
2016-08-21T17:40:51.426Z,66.74
2016-08-21T17:41:51.401Z,67.21
2016-08-21T17:42:51.394Z,67.05
2016-08-21T17:43:51.391Z,66.54
2016-08-21T17:44:51.420Z,66.48
2016-08-21T17:45:51.429Z,66.54
2016-08-21T17:46:51.401Z,67.6
2016-08-21T17:47:51.430Z,68.27
2016-08-21T17:48:51.389Z,68.27
2016-08-21T17:49:51.512Z,67.31
2016-08-21T17:50:51.377Z,67.69
2016-08-21T17:51:51.370Z,67.31
2016-08-21T17:52:51.358Z,67.5
2016-08-21T17:53:51.370Z,68.74
2016-08-21T17:54:51.356Z,67.6
2016-08-21T17:55:51.365Z,66.35
2016-08-21T17:56:51.379Z,66.54
2016-08-21T17:57:51.381Z,67.41
2016-08-21T17:58:51.394Z,67.21
2016-08-21T17:59:51.400Z,66.93
2016-08-21T18:00:51.414Z,68.07
2016-08-21T18:01:51.407Z,67.66
2016-08-21T18:02:52.134Z,67.47
2016-08-21T18:03:51.520Z,67.37
2016-08-21T18:04:51.375Z,66.7
2016-08-21T18:05:51.340Z,66.51
2016-08-21T18:06:51.350Z,66.89
2016-08-21T18:07:51.366Z,66.61
2016-08-21T18:08:51.367Z,67.08
2016-08-21T18:09:51.376Z,67.37
2016-08-21T18:10:51.383Z,68.52
2016-08-21T18:11:51.375Z,68.62
2016-08-21T18:12:51.419Z,68.04
2016-08-21T18:13:51.392Z,68.29
2016-08-21T18:14:51.356Z,69.92
2016-08-21T18:15:51.314Z,69.44
2016-08-21T18:16:51.313Z,69.73
2016-08-21T18:17:51.330Z,69.64
2016-08-21T18:18:51.337Z,71.64
2016-08-21T18:19:51.344Z,71.73
2016-08-21T18:20:51.344Z,71.07
2016-08-21T18:21:51.399Z,70.3
2016-08-21T18:22:51.360Z,70.68
2016-08-21T18:23:51.367Z,70.59
2016-08-21T18:24:51.329Z,69.92
2016-08-21T18:25:51.460Z,71.45
2016-08-21T18:26:51.324Z,72.02
2016-08-21T18:27:51.292Z,71.55
2016-08-21T18:28:51.302Z,71.07
2016-08-21T18:29:51.319Z,71.55
2016-08-21T18:30:51.313Z,71.64
2016-08-21T18:31:51.328Z,71.64
2016-08-21T18:32:51.450Z,71.83
2016-08-21T18:33:51.292Z,71.45
2016-08-21T18:34:51.284Z,71.51
2016-08-21T18:35:51.294Z,71.61
2016-08-21T18:36:51.298Z,71.7
2016-08-21T18:37:51.310Z,71.8
2016-08-21T18:38:51.310Z,71.61
2016-08-21T18:39:51.279Z,71.89
2016-08-21T18:40:51.281Z,72.18
2016-08-21T18:41:51.288Z,72.08
2016-08-21T18:42:51.237Z,71.8
2016-08-21T18:43:51.255Z,72.28
2016-08-21T18:44:51.259Z,72.08
2016-08-21T18:45:51.264Z,71.61
2016-08-21T18:46:51.274Z,72.37
2016-08-21T18:47:51.280Z,73.61
2016-08-21T18:48:51.283Z,73.52
2016-08-21T18:49:51.298Z,73.43
2016-08-21T18:50:51.853Z,73.33
2016-08-21T18:51:51.309Z,72.94
2016-08-21T18:52:51.208Z,73.14
2016-08-21T18:53:51.216Z,73.14
2016-08-21T18:54:51.296Z,73.43
2016-08-21T18:55:51.246Z,73.04
2016-08-21T18:56:51.232Z,72.94
2016-08-21T18:57:51.243Z,73.77
2016-08-21T18:58:51.251Z,73.39
2016-08-21T18:59:51.280Z,73.96
2016-08-21T19:00:51.281Z,73.77
2016-08-21T19:01:51.285Z,74.63
2016-08-21T19:02:51.290Z,74.63
2016-08-21T19:03:51.296Z,74.34
2016-08-21T19:04:51.208Z,75.2
2016-08-21T19:05:51.213Z,75.01
2016-08-21T19:06:51.203Z,75.3
2016-08-21T19:07:51.229Z,75.3
2016-08-21T19:08:51.237Z,75.68
2016-08-21T19:09:51.244Z,76.64
2016-08-21T19:10:51.239Z,75.96
2016-08-21T19:11:51.249Z,75.96
2016-08-21T19:12:51.130Z,75.59
2016-08-21T19:13:51.117Z,75.49
2016-08-21T19:14:51.231Z,76.54
2016-08-21T19:15:51.144Z,75.74
2016-08-21T19:16:51.152Z,75.68
2016-08-21T19:17:51.199Z,75.45
2016-08-21T19:18:51.201Z,75.3
2016-08-21T19:19:51.203Z,75.64
2016-08-21T19:20:51.227Z,75.93
2016-08-21T19:21:51.240Z,75.83
2016-08-21T19:22:51.093Z,75.74
2016-08-21T19:23:51.196Z,76.6
2016-08-21T19:24:51.203Z,77.08
2016-08-21T19:25:52.009Z,77.36
2016-08-21T19:26:51.391Z,77.45
2016-08-21T19:27:51.126Z,77.45
2016-08-21T19:28:51.125Z,77.17
2016-08-21T19:29:51.040Z,78.03
2016-08-21T19:30:51.049Z,77.94
2016-08-21T19:31:51.055Z,78.03
2016-08-21T19:32:51.153Z,79.27
2016-08-21T19:33:51.162Z,78.79
2016-08-21T19:34:51.182Z,79.94
2016-08-21T19:35:51.180Z,80.04
2016-08-21T19:36:51.193Z,80.13
2016-08-21T19:37:51.045Z,79.94
2016-08-21T19:38:51.197Z,80.41
2016-08-21T19:39:51.214Z,80.41
2016-08-21T19:40:51.126Z,79.94
2016-08-21T19:41:51.033Z,80.32
2016-08-21T19:42:51.027Z,80.04
2016-08-21T19:43:51.033Z,79.27
2016-08-21T19:44:51.142Z,79.17
2016-08-21T19:45:51.050Z,79.65
2016-08-21T19:46:51.059Z,79.75
2016-08-21T19:47:51.839Z,79.75
2016-08-21T19:48:51.070Z,79.85
2016-08-21T19:49:51.180Z,79.85
2016-08-21T19:50:51.088Z,79.85
2016-08-21T19:51:51.059Z,79.75
2016-08-21T19:52:50.918Z,80.9
2016-08-21T19:53:51.068Z,80.8
2016-08-21T19:54:51.017Z,80.22
2016-08-21T19:55:51.020Z,80.04
2016-08-21T19:56:51.130Z,80.13
2016-08-21T19:57:51.042Z,80.22
2016-08-21T19:58:51.053Z,79.75
2016-08-21T19:59:51.240Z,80.32
2016-08-21T20:00:51.216Z,79.85
2016-08-21T20:01:51.178Z,80.04
2016-08-21T20:02:51.187Z,80.04
2016-08-21T20:03:52.098Z,79.94
2016-08-21T20:04:50.986Z,80.32
2016-08-21T20:05:50.859Z,79.98
2016-08-21T20:06:51.102Z,80.46
2016-08-21T20:07:50.971Z,79.98
2016-08-21T20:08:51.010Z,80.36
2016-08-21T20:09:50.858Z,80.36
2016-08-21T20:10:50.998Z,80.27
2016-08-21T20:11:50.984Z,79.79
2016-08-21T20:12:50.879Z,79.5
2016-08-21T20:13:50.860Z,79.6
2016-08-21T20:14:50.848Z,79.22
2016-08-21T20:15:50.854Z,79.6
2016-08-21T20:16:51.211Z,79.41
2016-08-21T20:17:51.022Z,79.02
2016-08-21T20:18:50.844Z,79.02
2016-08-21T20:19:50.826Z,79.22
2016-08-21T20:20:50.839Z,79.69
2016-08-21T20:21:50.804Z,79.5
2016-08-21T20:22:50.985Z,78.45
2016-08-21T20:23:50.814Z,79.22
2016-08-21T20:24:50.811Z,79.5
2016-08-21T20:25:50.818Z,79.02
2016-08-21T20:26:51.114Z,79.69
2016-08-21T20:27:51.767Z,79.88
2016-08-21T20:28:50.881Z,79.69
2016-08-21T20:29:51.064Z,79.79
2016-08-21T20:30:50.984Z,79.98
2016-08-21T20:31:50.790Z,79.88
2016-08-21T20:32:50.791Z,79.88
2016-08-21T20:33:50.677Z,79.98
2016-08-21T20:34:50.773Z,80.74
2016-08-21T20:35:50.647Z,81.47
2016-08-21T20:36:50.645Z,81.13
2016-08-21T20:37:51.459Z,81.89
2016-08-21T20:38:50.626Z,82.23
2016-08-21T20:39:50.651Z,82.23
2016-08-21T20:40:50.642Z,82.23
2016-08-21T20:41:50.627Z,81.95
2016-08-21T20:42:50.616Z,82.23
2016-08-21T20:43:50.634Z,82.32
2016-08-21T20:44:50.601Z,83.09
2016-08-21T20:45:50.591Z,82.52
2016-08-21T20:46:50.597Z,82.61
2016-08-21T20:47:50.599Z,82.42
2016-08-21T20:48:51.330Z,82.42
2016-08-21T20:49:50.598Z,82.81
2016-08-21T20:50:51.205Z,82.42
2016-08-21T20:51:50.584Z,82.52
2016-08-21T20:52:50.558Z,82.14
2016-08-21T20:53:50.558Z,82.14
2016-08-21T20:54:50.555Z,82.23
2016-08-21T20:55:50.535Z,82.61
2016-08-21T20:56:50.563Z,82.9
2016-08-21T20:57:50.815Z,82.81
2016-08-21T20:58:50.595Z,82.81
2016-08-21T20:59:50.533Z,82.71
2016-08-21T21:00:50.801Z,82.42
2016-08-21T21:01:51.010Z,82.52
2016-08-21T21:02:50.633Z,82.52
2016-08-21T21:03:50.628Z,81.85
2016-08-21T21:04:50.617Z,82.14
2016-08-21T21:05:50.497Z,82.32
2016-08-21T21:06:50.500Z,82.32
2016-08-21T21:07:50.487Z,82.42
2016-08-21T21:08:50.483Z,82.23
2016-08-21T21:09:50.487Z,81.85
2016-08-21T21:10:50.463Z,81.95
2016-08-21T21:12:05.383Z,82.14
2016-08-21T21:12:50.546Z,82.32
2016-08-21T21:13:51.192Z,82.23
2016-08-21T21:14:50.592Z,82.71
2016-08-21T21:15:50.571Z,82.42
2016-08-21T21:16:50.613Z,82.42
2016-08-21T21:17:50.474Z,81.85
2016-08-21T21:18:50.476Z,83
2016-08-21T21:19:50.502Z,82.32
2016-08-21T21:20:50.556Z,82.52
2016-08-21T21:21:50.494Z,82.32
2016-08-21T21:22:50.417Z,82.61
2016-08-21T21:23:50.424Z,83.28
2016-08-21T21:24:50.407Z,82.71
2016-08-21T21:25:51.173Z,82.32
2016-08-21T21:26:50.426Z,82.81
2016-08-21T21:27:50.417Z,82.61
2016-08-21T21:28:50.530Z,82.81
2016-08-21T21:29:50.479Z,82.9
2016-08-21T21:30:50.458Z,82.14
2016-08-21T21:31:50.408Z,82.81
2016-08-21T21:32:50.501Z,82.75
2016-08-21T21:33:50.565Z,82.84
2016-08-21T21:34:51.463Z,82.32
2016-08-21T21:35:50.349Z,82.14
2016-08-21T21:36:50.332Z,82.18
2016-08-21T21:37:50.327Z,82.37
2016-08-21T21:38:50.331Z,82.28
2016-08-21T21:39:50.342Z,82.18
2016-08-21T21:40:50.318Z,82.28
2016-08-21T21:41:50.319Z,82.18
2016-08-21T21:42:50.304Z,82.37
2016-08-21T21:43:50.309Z,81.99
2016-08-21T21:44:50.295Z,81.99
2016-08-21T21:45:50.289Z,82.18
2016-08-21T21:46:50.323Z,82.18
2016-08-21T21:47:50.274Z,82.56
2016-08-21T21:48:50.297Z,81.99
2016-08-21T21:49:51.079Z,82.46
2016-08-21T21:50:50.264Z,81.79
2016-08-21T21:51:50.267Z,81.51
2016-08-21T21:52:51.319Z,81.41
2016-08-21T21:53:51.171Z,82.08
2016-08-21T21:54:50.400Z,82.08
2016-08-21T21:55:51.129Z,82.18
2016-08-21T21:56:50.243Z,82.08
2016-08-21T21:57:50.247Z,81.32
2016-08-21T21:58:50.233Z,81.79
2016-08-21T21:59:50.253Z,81.89
2016-08-21T22:00:50.221Z,82.28
2016-08-21T22:01:50.225Z,81.89
2016-08-21T22:02:50.231Z,82.08
2016-08-21T22:03:50.252Z,81.89
2016-08-21T22:04:50.208Z,81.79
2016-08-21T22:05:50.200Z,81.32
2016-08-21T22:06:50.198Z,81.32
2016-08-21T22:07:50.178Z,81.32
2016-08-21T22:08:50.180Z,81.41
2016-08-21T22:09:50.174Z,81.79
2016-08-21T22:10:50.183Z,81.79
2016-08-21T22:11:50.175Z,81.89
2016-08-21T22:12:50.178Z,82.18
2016-08-21T22:13:50.188Z,81.7
2016-08-21T22:14:50.188Z,81.89
2016-08-21T22:15:50.247Z,81.41
2016-08-21T22:16:50.479Z,81.22
2016-08-21T22:17:51.140Z,80.84
2016-08-21T22:18:50.175Z,80.27
2016-08-21T22:19:50.243Z,80.84
2016-08-21T22:20:50.251Z,81.22
2016-08-21T22:21:50.221Z,82.46
2016-08-21T22:22:51.143Z,82.37
2016-08-21T22:23:50.110Z,82.18
2016-08-21T22:24:50.125Z,82.37
2016-08-21T22:25:50.122Z,82.46
2016-08-21T22:26:50.242Z,81.85
2016-08-21T22:27:50.512Z,82.23
2016-08-21T22:28:50.190Z,82.42
2016-08-21T22:29:51.131Z,82.32
2016-08-21T22:30:50.533Z,82.52
2016-08-21T22:32:05.008Z,82.32
2016-08-21T22:32:50.195Z,82.14
2016-08-21T22:33:50.158Z,82.14
2016-08-21T22:34:50.071Z,82.23
2016-08-21T22:35:50.060Z,82.14
2016-08-21T22:36:50.056Z,82.14
2016-08-21T22:37:50.046Z,82.42
2016-08-21T22:38:50.981Z,82.81
2016-08-21T22:39:50.034Z,82.52
2016-08-21T22:40:50.030Z,83.18
2016-08-21T22:41:50.021Z,83.14
2016-08-21T22:42:50.009Z,83.43
2016-08-21T22:43:50.007Z,83.57
2016-08-21T22:44:50.016Z,83.24
2016-08-21T22:45:50.004Z,83.81
2016-08-21T22:46:49.986Z,84.1
2016-08-21T22:47:50.011Z,83.91
2016-08-21T22:48:49.995Z,83.81
2016-08-21T22:49:50.001Z,84.48
2016-08-21T22:50:49.989Z,84.48
2016-08-21T22:51:49.969Z,84.48
2016-08-21T22:52:49.975Z,84.96
2016-08-21T22:53:50.012Z,85.05
2016-08-21T22:54:50.091Z,84.86
2016-08-21T22:55:49.942Z,84.48
2016-08-21T22:56:49.955Z,84.96
2016-08-21T22:57:49.947Z,84.96
2016-08-21T22:58:49.928Z,85.44
2016-08-21T22:59:49.949Z,85.72
2016-08-21T23:00:49.917Z,86.1
2016-08-21T23:01:49.922Z,85.91
2016-08-21T23:02:49.970Z,86.01
2016-08-21T23:03:49.952Z,85.53
2016-08-21T23:04:50.026Z,85.53
2016-08-21T23:05:49.892Z,85.63
2016-08-21T23:06:49.893Z,85.34
2016-08-21T23:07:49.902Z,85.63
2016-08-21T23:08:49.883Z,85.72
2016-08-21T23:09:49.876Z,85.49
2016-08-21T23:10:49.857Z,85.63
2016-08-21T23:11:49.865Z,86.2
2016-08-21T23:12:49.848Z,86.01
2016-08-21T23:13:49.861Z,86.73
2016-08-21T23:14:49.929Z,86.73
2016-08-21T23:15:49.922Z,85.97
2016-08-21T23:16:49.842Z,86.3
2016-08-21T23:17:49.826Z,86.73
2016-08-21T23:18:49.963Z,86.54
2016-08-21T23:19:49.924Z,86.16
2016-08-21T23:20:49.817Z,85.87
2016-08-21T23:21:49.816Z,86.06
2016-08-21T23:22:49.801Z,86.06
2016-08-21T23:23:49.811Z,86.54
2016-08-21T23:24:49.800Z,86.54
2016-08-21T23:25:49.850Z,86.54
2016-08-21T23:26:49.830Z,86.54
2016-08-21T23:27:49.963Z,86.35
2016-08-21T23:28:49.893Z,86.63
2016-08-21T23:29:49.894Z,86.92
2016-08-21T23:30:49.758Z,86.82
2016-08-21T23:31:49.909Z,87.21
2016-08-21T23:32:49.871Z,87.11
2016-08-21T23:33:49.861Z,87.4
2016-08-21T23:34:49.851Z,87.87
2016-08-21T23:35:49.900Z,87.87
2016-08-21T23:36:49.724Z,87.4
2016-08-21T23:37:49.741Z,87.4
2016-08-21T23:38:49.710Z,87.49
2016-08-21T23:39:49.707Z,87.4
2016-08-21T23:40:49.746Z,87.49
2016-08-21T23:41:49.755Z,87.97
2016-08-21T23:42:49.700Z,87.87
2016-08-21T23:43:49.695Z,87.87
2016-08-21T23:44:49.688Z,87.78
2016-08-21T23:45:49.818Z,87.97
2016-08-21T23:46:49.749Z,88.01
2016-08-21T23:47:49.728Z,87.92
2016-08-21T23:48:49.651Z,88.11
2016-08-21T23:49:49.671Z,88.01
2016-08-21T23:50:49.638Z,87.54
2016-08-21T23:51:49.629Z,88.01
2016-08-21T23:52:49.625Z,87.92
2016-08-21T23:53:49.628Z,87.35
2016-08-21T23:54:49.624Z,87.35
2016-08-21T23:55:49.615Z,87.54
2016-08-21T23:56:49.643Z,87.44
2016-08-21T23:57:49.822Z,87.73
2016-08-21T23:58:50.481Z,86.87
2016-08-21T23:59:49.730Z,87.15
